Terminal Aerodrome Forecast
Issued by NWS Cleveland, OH

Home | Current Version | Previous Version | Graphics & Text | Print | Product List | Glossary Off
Versions: 1 2 3 4 5 6 7 8 9 10 11 12 13 14 15 16 17 18 19 20 21 22 23

000
FTUS41 KCLE 300320 AAA
TAFMFD
TAF AMD
KMFD 300320Z 3003/3024 13006KT P6SM SCT015 OVC025
      TEMPO 3004/3008 3SM BR OVC015
     FM300800 19006KT 3SM BR BKN006 OVC015
      TEMPO 3009/3013 2SM BR OVC006
     FM301500 22008KT P6SM BKN015
     FM301800 22008KT P6SM -SHRA BKN025 OVC035
      TEMPO 3018/3022 3SM TSRA OVC015CB=

USA.gov is the U.S. government's official web portal to all federal, state and local government web resources and services.